Time;durP1;ratioP1;P1;durP2;ratioP2;P2;SDS_P1;SDS_P2;PMS_P1;PMS_P2;Temp;Humidity;BMP_temperature;BMP_pressure;BME280_temperature;BME280_humidity;BME280_pressure;Samples;Min_cycle;Max_cycle;Signal;HPM_P1;HPM_P2
2023/09/28 00:01:35;;;;;;;8.10;4.50;;;;;;;17.56;95.34;101115.72;4935471;29;20110;-78
2023/09/28 00:04:01;;;;;;;8.55;4.80;;;;;;;17.47;95.86;101116.88;4931919;29;20039;-77
2023/09/28 00:06:27;;;;;;;11.57;5.47;;;;;;;17.48;95.94;101121.94;4914344;29;20443;-77
2023/09/28 00:08:52;;;;;;;10.50;5.13;;;;;;;17.46;95.96;101126.56;4911497;29;20055;-77
2023/09/28 00:11:18;;;;;;;11.77;5.15;;;;;;;17.45;96.54;101129.38;4914821;29;20445;-76
2023/09/28 00:13:43;;;;;;;6.88;4.93;;;;;;;17.45;96.42;101132.00;4930199;29;20079;-77
2023/09/28 00:16:09;;;;;;;10.32;5.10;;;;;;;17.39;96.94;101133.59;4920355;29;20040;-77
2023/09/28 00:18:34;;;;;;;7.70;4.50;;;;;;;17.27;97.43;101130.69;4914428;29;20051;-77
2023/09/28 00:21:01;;;;;;;11.30;5.32;;;;;;;17.24;97.63;101123.22;4918267;29;20079;-77
2023/09/28 00:23:26;;;;;;;9.57;4.80;;;;;;;17.20;98.10;101137.69;4935154;29;20036;-77
2023/09/28 00:25:52;;;;;;;9.20;5.45;;;;;;;17.25;98.44;101142.34;4930270;29;20046;-75
2023/09/28 00:28:17;;;;;;;8.93;5.20;;;;;;;17.49;96.75;101134.03;4917803;29;20039;-75
2023/09/28 00:30:44;;;;;;;10.43;5.93;;;;;;;17.45;96.77;101124.13;4919534;29;20110;-75
2023/09/28 00:33:09;;;;;;;9.10;5.22;;;;;;;17.40;96.96;101119.47;4920456;29;20535;-75
2023/09/28 00:35:35;;;;;;;10.98;5.60;;;;;;;17.26;97.92;101131.69;4914871;29;20039;-78
2023/09/28 00:38:00;;;;;;;8.55;5.10;;;;;;;17.17;98.33;101135.44;4937732;29;20514;-77
2023/09/28 00:40:31;;;;;;;6.63;5.03;;;;;;;17.14;99.13;101143.72;4938512;29;20040;-77
2023/09/28 00:42:57;;;;;;;13.88;5.68;;;;;;;17.12;99.30;101135.22;4940948;29;20110;-77
2023/09/28 00:45:24;;;;;;;9.68;5.13;;;;;;;17.11;99.45;101133.59;4934232;29;20039;-79
2023/09/28 00:47:54;;;;;;;8.20;5.10;;;;;;;17.03;100.00;101133.75;4921192;29;20038;-78
2023/09/28 00:50:21;;;;;;;8.02;4.40;;;;;;;16.98;100.00;101147.41;4933399;29;20502;-77
2023/09/28 00:52:49;;;;;;;6.63;4.68;;;;;;;16.95;100.00;101141.72;4936472;29;20047;-77
2023/09/28 00:55:17;;;;;;;6.57;5.05;;;;;;;16.95;100.00;101146.97;4913565;29;20067;-77
2023/09/28 00:57:43;;;;;;;10.77;5.35;;;;;;;16.91;100.00;101147.38;4917406;29;20039;-77
2023/09/28 01:00:23;;;;;;;8.88;5.10;;;;;;;16.88;100.00;101144.31;4926240;29;21230;-76
2023/09/28 01:02:51;;;;;;;7.82;5.72;;;;;;;16.88;100.00;101139.88;4932139;29;20087;-78
2023/09/28 01:05:26;;;;;;;10.45;4.45;;;;;;;16.85;100.00;101135.00;4936832;29;20036;-77
2023/09/28 01:07:52;;;;;;;9.43;5.15;;;;;;;16.85;100.00;101137.63;4934235;29;20036;-77
2023/09/28 01:10:23;;;;;;;9.23;5.20;;;;;;;16.90;100.00;101129.22;4933199;29;20652;-77
2023/09/28 01:12:49;;;;;;;11.05;5.88;;;;;;;16.94;100.00;101130.47;4932683;29;20043;-77
2023/09/28 01:15:16;;;;;;;10.90;5.78;;;;;;;16.90;100.00;101127.41;4931804;29;21061;-77
2023/09/28 01:17:43;;;;;;;6.65;5.35;;;;;;;16.99;100.00;101127.25;4919980;29;20048;-77
2023/09/28 01:20:17;;;;;;;9.23;5.47;;;;;;;17.02;100.00;101126.88;4906688;29;20036;-77
2023/09/28 01:22:42;;;;;;;10.93;5.63;;;;;;;16.89;100.00;101143.31;4933100;29;20070;-77
2023/09/28 01:25:09;;;;;;;9.10;5.15;;;;;;;16.81;100.00;101151.28;4918905;29;20063;-76
2023/09/28 01:27:35;;;;;;;9.38;4.68;;;;;;;16.76;100.00;101156.25;4923769;29;20050;-77
2023/09/28 01:30:01;;;;;;;6.72;4.75;;;;;;;16.69;100.00;101153.59;4923347;29;20069;-77
2023/09/28 01:32:26;;;;;;;9.18;4.65;;;;;;;16.68;100.00;101157.19;4934927;29;20059;-77
2023/09/28 01:34:52;;;;;;;7.22;4.60;;;;;;;16.65;100.00;101152.31;4928161;29;20059;-78
2023/09/28 01:37:23;;;;;;;6.03;4.53;;;;;;;16.62;100.00;101140.44;4926526;28;20036;-77
2023/09/28 01:39:49;;;;;;;5.43;4.55;;;;;;;16.61;100.00;101140.63;4920090;29;20506;-77
2023/09/28 01:42:14;;;;;;;10.20;5.07;;;;;;;16.58;100.00;101133.94;4935668;28;20043;-78
2023/09/28 01:44:40;;;;;;;9.02;5.03;;;;;;;16.56;100.00;101130.72;4914954;29;20047;-77
2023/09/28 01:47:06;;;;;;;10.10;5.75;;;;;;;16.55;100.00;101127.25;4936940;29;20054;-77
2023/09/28 01:49:31;;;;;;;7.60;5.30;;;;;;;16.53;100.00;101142.34;4932710;29;20112;-77
2023/09/28 01:51:57;;;;;;;6.72;4.30;;;;;;;16.53;100.00;101144.16;4915329;29;20028;-77
2023/09/28 01:54:22;;;;;;;7.43;4.65;;;;;;;16.52;100.00;101148.59;4934668;29;20039;-77
2023/09/28 01:56:48;;;;;;;7.85;5.28;;;;;;;16.50;100.00;101147.97;4905294;29;20038;-78
2023/09/28 01:59:14;;;;;;;7.13;5.05;;;;;;;16.50;100.00;101145.38;4913646;29;20055;-77
2023/09/28 02:01:40;;;;;;;10.13;5.18;;;;;;;16.48;100.00;101144.75;4924114;29;20486;-77
2023/09/28 02:04:06;;;;;;;9.88;4.75;;;;;;;16.45;100.00;101146.91;4930931;29;20043;-78
2023/09/28 02:06:31;;;;;;;13.40;6.35;;;;;;;16.44;100.00;101145.28;4916645;29;20165;-76
2023/09/28 02:08:57;;;;;;;11.23;5.38;;;;;;;16.42;100.00;101142.84;4938955;29;20035;-78
2023/09/28 02:11:22;;;;;;;8.63;5.32;;;;;;;16.40;100.00;101144.84;4923564;29;20074;-77
2023/09/28 02:13:49;;;;;;;8.40;5.47;;;;;;;16.36;100.00;101154.06;4934339;29;20490;-77
2023/09/28 02:16:14;;;;;;;6.72;4.55;;;;;;;16.31;100.00;101159.88;4901853;29;20569;-77
2023/09/28 02:18:42;;;;;;;6.13;4.80;;;;;;;16.28;100.00;101159.41;4920293;29;20478;-76
2023/09/28 02:21:12;;;;;;;12.15;6.25;;;;;;;16.23;100.00;101165.19;4920534;29;20059;-79
2023/09/28 02:23:39;;;;;;;10.63;4.63;;;;;;;16.20;100.00;101170.81;4919715;29;20735;-78
2023/09/28 02:26:06;;;;;;;6.35;4.53;;;;;;;16.19;100.00;101171.00;4928538;29;20039;-77
2023/09/28 02:28:32;;;;;;;10.27;4.80;;;;;;;16.15;100.00;101160.06;4937059;29;20519;-79
2023/09/28 02:31:07;;;;;;;11.10;5.00;;;;;;;16.13;100.00;101159.44;4916076;29;20039;-76
2023/09/28 02:33:33;;;;;;;6.53;4.65;;;;;;;16.12;100.00;101165.66;4912245;29;20391;-76
2023/09/28 02:35:59;;;;;;;7.85;5.03;;;;;;;16.09;100.00;101169.47;4918623;29;20047;-77
2023/09/28 02:38:24;;;;;;;11.45;5.18;;;;;;;16.06;100.00;101167.22;4916434;29;20390;-77
2023/09/28 02:40:50;;;;;;;6.30;4.80;;;;;;;16.04;100.00;101171.81;4935558;29;20115;-78
2023/09/28 02:43:16;;;;;;;6.78;5.00;;;;;;;15.99;100.00;101171.53;4930971;29;20044;-79
2023/09/28 02:45:42;;;;;;;10.63;5.32;;;;;;;15.94;100.00;101172.09;4917715;29;20050;-77
2023/09/28 02:48:08;;;;;;;7.22;5.05;;;;;;;15.91;100.00;101179.50;4917864;29;20071;-77
2023/09/28 02:50:34;;;;;;;8.65;5.40;;;;;;;15.84;100.00;101183.81;4900553;29;20110;-76
2023/09/28 02:53:00;;;;;;;8.50;4.38;;;;;;;15.80;100.00;101185.19;4932337;29;20059;-77
2023/09/28 02:55:26;;;;;;;9.73;4.97;;;;;;;15.72;100.00;101186.06;4928040;29;20036;-78
2023/09/28 02:57:51;;;;;;;6.68;4.68;;;;;;;15.67;100.00;101189.22;4934377;29;20095;-78
2023/09/28 03:02:50;;;;;;;9.07;5.38;;;;;;;15.64;100.00;101201.84;4918641;29;20094;-78
2023/09/28 03:05:16;;;;;;;8.80;5.28;;;;;;;15.62;100.00;101203.81;4933148;28;20525;-78
2023/09/28 03:07:42;;;;;;;7.90;5.22;;;;;;;15.61;100.00;101199.56;4933509;28;20040;-77
2023/09/28 03:10:10;;;;;;;8.60;5.22;;;;;;;15.60;100.00;101201.38;4919377;29;20051;-77
2023/09/28 03:12:36;;;;;;;10.45;4.75;;;;;;;15.58;100.00;101204.19;4929106;29;20044;-79
2023/09/28 03:15:10;;;;;;;9.80;4.82;;;;;;;15.56;100.00;101206.16;4915836;29;20035;-78
2023/09/28 03:17:35;;;;;;;8.38;5.85;;;;;;;15.54;100.00;101210.75;4930919;29;20035;-78
2023/09/28 03:20:01;;;;;;;7.60;5.30;;;;;;;15.52;100.00;101206.69;4917679;29;20039;-77
2023/09/28 03:22:26;;;;;;;9.32;4.97;;;;;;;15.50;100.00;101216.50;4935029;29;20051;-79
2023/09/28 03:24:52;;;;;;;7.45;4.85;;;;;;;15.43;100.00;101219.03;4917675;29;20036;-78
2023/09/28 03:27:17;;;;;;;6.82;5.05;;;;;;;15.39;100.00;101202.09;4918607;29;20039;-77
2023/09/28 03:29:43;;;;;;;6.88;4.95;;;;;;;15.35;100.00;101208.63;4921293;29;20039;-77
2023/09/28 03:32:08;;;;;;;13.63;5.70;;;;;;;15.33;100.00;101214.06;4930324;29;20657;-78
2023/09/28 03:34:34;;;;;;;13.77;5.75;;;;;;;15.31;100.00;101208.19;4932741;29;20031;-77
2023/09/28 03:37:00;;;;;;;9.63;6.05;;;;;;;15.30;100.00;101208.38;4934651;29;20031;-77
2023/09/28 03:39:27;;;;;;;11.32;5.05;;;;;;;15.28;100.00;101205.94;4914097;29;20058;-78
2023/09/28 03:41:52;;;;;;;7.53;5.40;;;;;;;15.28;100.00;101216.38;4932970;29;20039;-78
2023/09/28 03:44:18;;;;;;;9.07;5.25;;;;;;;15.26;100.00;101223.59;4927055;29;20032;-77
2023/09/28 03:46:44;;;;;;;9.70;5.50;;;;;;;15.26;100.00;101228.00;4915979;29;20028;-77
2023/09/28 03:49:09;;;;;;;11.57;5.05;;;;;;;15.22;100.00;101224.09;4928298;29;20047;-77
2023/09/28 03:51:35;;;;;;;8.88;5.13;;;;;;;15.20;100.00;101237.38;4918923;29;20399;-77
2023/09/28 03:54:01;;;;;;;10.48;5.88;;;;;;;15.18;100.00;101236.69;4917452;29;20126;-78
2023/09/28 03:56:28;;;;;;;8.50;5.25;;;;;;;15.15;100.00;101239.69;4921970;29;20044;-78
2023/09/28 03:58:53;;;;;;;13.60;5.57;;;;;;;15.12;100.00;101248.66;4922462;29;20039;-77
2023/09/28 04:01:19;;;;;;;10.95;6.15;;;;;;;15.09;100.00;101245.59;4937767;29;20044;-77
2023/09/28 04:03:44;;;;;;;8.77;5.60;;;;;;;15.07;100.00;101250.16;4922171;29;20042;-77
2023/09/28 04:06:10;;;;;;;10.98;5.47;;;;;;;15.04;100.00;101261.78;4918665;29;20094;-78
2023/09/28 04:08:37;;;;;;;7.30;5.15;;;;;;;14.99;100.00;101248.44;4920406;29;20028;-78
2023/09/28 04:11:02;;;;;;;12.20;6.30;;;;;;;14.94;100.00;101253.38;4918977;29;20036;-77
2023/09/28 04:13:28;;;;;;;10.55;6.07;;;;;;;14.91;100.00;101249.31;4927751;29;20053;-77
2023/09/28 04:15:53;;;;;;;10.68;6.30;;;;;;;14.89;100.00;101253.88;4918034;29;20062;-77
2023/09/28 04:18:19;;;;;;;10.38;6.50;;;;;;;14.89;100.00;101258.31;4919435;29;20039;-77
2023/09/28 04:20:44;;;;;;;10.82;5.97;;;;;;;14.88;100.00;101249.66;4935459;29;20501;-77
2023/09/28 04:23:09;;;;;;;9.23;5.80;;;;;;;14.87;100.00;101253.25;4933604;29;20040;-77
2023/09/28 04:25:35;;;;;;;11.32;5.97;;;;;;;14.84;100.00;101256.19;4905872;29;20043;-78
2023/09/28 04:28:01;;;;;;;9.05;5.65;;;;;;;14.81;100.00;101253.94;4934710;29;20035;-77
2023/09/28 04:30:27;;;;;;;12.40;5.43;;;;;;;14.81;100.00;101256.56;4920549;29;20134;-78
2023/09/28 04:32:54;;;;;;;9.43;6.13;;;;;;;14.79;100.00;101259.34;4937776;29;20035;-78
2023/09/28 04:35:20;;;;;;;9.85;5.93;;;;;;;14.78;100.00;101247.25;4908722;29;20047;-77
2023/09/28 04:37:47;;;;;;;9.60;6.05;;;;;;;14.77;100.00;101250.06;4933910;29;20141;-78
2023/09/28 04:40:13;;;;;;;10.98;6.72;;;;;;;14.77;100.00;101260.50;4933154;29;20073;-77
2023/09/28 04:42:39;;;;;;;9.48;5.15;;;;;;;14.74;100.00;101268.66;4920220;29;20042;-77
2023/09/28 04:45:05;;;;;;;7.85;5.15;;;;;;;14.70;100.00;101264.78;4919778;29;20031;-77
2023/09/28 04:47:31;;;;;;;10.35;5.40;;;;;;;14.69;100.00;101265.75;4933044;29;20460;-77
2023/09/28 04:49:57;;;;;;;8.43;5.10;;;;;;;14.64;100.00;101268.88;4917235;29;20127;-78
2023/09/28 04:52:23;;;;;;;10.63;4.97;;;;;;;14.62;100.00;101272.63;4936434;29;20050;-77
2023/09/28 04:54:50;;;;;;;8.95;5.07;;;;;;;14.58;100.00;101269.59;4924818;29;20042;-77
2023/09/28 04:57:15;;;;;;;9.70;5.55;;;;;;;14.56;100.00;101261.88;4923024;29;20075;-80
2023/09/28 04:59:41;;;;;;;8.32;5.10;;;;;;;14.55;100.00;101265.47;4921731;29;20035;-78
2023/09/28 05:02:08;;;;;;;8.10;4.97;;;;;;;14.54;100.00;101276.06;4933677;29;20406;-77
2023/09/28 05:04:33;;;;;;;10.20;4.85;;;;;;;14.54;100.00;101281.28;4916663;29;20043;-77
2023/09/28 05:06:59;;;;;;;8.68;4.70;;;;;;;14.54;100.00;101286.50;4928976;29;20032;-77
2023/09/28 05:09:28;;;;;;;9.00;5.30;;;;;;;14.51;100.00;101276.44;4940121;29;20108;-77
2023/09/28 05:11:56;;;;;;;10.27;5.78;;;;;;;14.48;100.00;101269.72;4921162;29;20040;-77
2023/09/28 05:14:24;;;;;;;8.25;4.82;;;;;;;14.45;100.00;101269.25;4939006;28;20086;-79
2023/09/28 05:16:50;;;;;;;7.78;5.28;;;;;;;14.42;100.00;101270.41;4927845;29;20035;-78
2023/09/28 05:19:16;;;;;;;11.15;4.78;;;;;;;14.42;100.00;101270.41;4896878;29;20056;-78
2023/09/28 05:21:41;;;;;;;7.53;4.93;;;;;;;14.41;100.00;101279.25;4918825;29;20038;-78
2023/09/28 05:24:07;;;;;;;9.68;5.03;;;;;;;14.43;100.00;101281.66;4920254;29;20035;-77
2023/09/28 05:26:32;;;;;;;9.30;4.85;;;;;;;14.39;100.00;101273.34;4918736;29;20550;-77
2023/09/28 05:28:58;;;;;;;7.72;4.50;;;;;;;14.36;100.00;101271.91;4919715;29;20035;-77
2023/09/28 05:31:24;;;;;;;7.47;4.90;;;;;;;14.34;100.00;101278.28;4920561;29;20043;-79
2023/09/28 05:33:50;;;;;;;8.10;4.68;;;;;;;14.33;100.00;101293.09;4938363;29;20410;-79
2023/09/28 05:36:15;;;;;;;10.00;5.53;;;;;;;14.31;100.00;101282.03;4922138;29;20062;-78
2023/09/28 05:38:41;;;;;;;10.40;4.82;;;;;;;14.31;100.00;101294.25;4935234;28;20162;-80
2023/09/28 05:41:07;;;;;;;10.25;5.05;;;;;;;14.27;100.00;101306.81;4937097;29;20040;-77
2023/09/28 05:43:32;;;;;;;10.10;4.47;;;;;;;14.24;100.00;101308.97;4921469;29;20039;-77
2023/09/28 05:45:58;;;;;;;10.27;4.53;;;;;;;14.25;100.00;101311.41;4907336;29;20110;-78
2023/09/28 05:48:24;;;;;;;8.48;5.05;;;;;;;14.26;100.00;101317.41;4921829;29;20043;-77
2023/09/28 05:50:50;;;;;;;12.63;5.28;;;;;;;14.26;100.00;101330.47;4933552;29;20181;-77
2023/09/28 05:53:15;;;;;;;9.68;5.10;;;;;;;14.26;100.00;101333.06;4928969;29;20101;-81
2023/09/28 05:55:41;;;;;;;10.23;5.28;;;;;;;14.28;100.00;101336.31;4933224;29;20032;-78
2023/09/28 05:58:06;;;;;;;8.07;4.40;;;;;;;14.29;100.00;101340.56;4936760;29;20046;-77
2023/09/28 06:00:32;;;;;;;6.75;4.70;;;;;;;14.35;100.00;101335.50;4907677;29;20039;-78
2023/09/28 06:02:58;;;;;;;9.75;5.28;;;;;;;14.32;100.00;101328.00;4907378;29;20501;-80
2023/09/28 06:05:23;;;;;;;9.60;4.68;;;;;;;14.32;100.00;101327.22;4939025;29;20036;-81
2023/09/28 06:07:48;;;;;;;11.88;5.18;;;;;;;14.35;100.00;101337.28;4933696;29;20048;-78
2023/09/28 06:10:14;;;;;;;14.77;5.95;;;;;;;14.36;100.00;101339.75;4937509;29;20405;-79
2023/09/28 06:12:40;;;;;;;10.98;5.20;;;;;;;14.39;100.00;101352.47;4925034;29;20091;-79
2023/09/28 06:15:07;;;;;;;7.20;4.68;;;;;;;14.41;100.00;101353.09;4921388;29;20042;-77
2023/09/28 06:17:33;;;;;;;7.60;4.68;;;;;;;14.45;100.00;101358.81;4907319;29;20510;-78
2023/09/28 06:19:58;;;;;;;6.85;4.50;;;;;;;14.48;100.00;101361.06;4919221;29;20071;-79
2023/09/28 06:22:24;;;;;;;10.93;5.50;;;;;;;14.51;100.00;101352.91;4921663;29;20075;-79
2023/09/28 06:24:50;;;;;;;11.30;5.13;;;;;;;14.60;100.00;101351.13;4940981;29;20047;-80
2023/09/28 06:27:15;;;;;;;12.23;5.32;;;;;;;14.65;100.00;101353.22;4942844;29;20114;-78
2023/09/28 06:29:41;;;;;;;10.88;5.05;;;;;;;14.75;100.00;101359.06;4935394;29;20035;-78
2023/09/28 06:32:06;;;;;;;8.48;4.85;;;;;;;14.90;100.00;101353.91;4920682;29;20038;-79
2023/09/28 06:34:32;;;;;;;7.68;4.70;;;;;;;15.07;100.00;101358.06;4934686;29;20046;-78
2023/09/28 06:36:57;;;;;;;9.02;4.95;;;;;;;15.31;100.00;101362.34;4925114;29;20083;-80
2023/09/28 06:39:22;;;;;;;8.55;4.70;;;;;;;15.58;100.00;101366.22;4926735;29;20043;-78
2023/09/28 06:41:49;;;;;;;13.10;5.95;;;;;;;15.82;100.00;101379.28;4919265;29;20122;-78
2023/09/28 06:44:23;;;;;;;13.13;6.65;;;;;;;16.04;100.00;101377.63;4932201;29;20071;-78
2023/09/28 06:46:49;;;;;;;12.68;6.45;;;;;;;16.26;100.00;101375.97;4920262;29;20110;-79
2023/09/28 06:49:15;;;;;;;8.25;4.80;;;;;;;16.49;100.00;101370.63;4936572;29;20055;-80
2023/09/28 06:51:42;;;;;;;7.68;4.50;;;;;;;16.74;100.00;101376.38;4935900;29;20042;-81
2023/09/28 06:54:08;;;;;;;7.47;4.10;;;;;;;16.99;100.00;101379.56;4942562;29;20407;-79
2023/09/28 06:56:35;;;;;;;10.18;4.00;;;;;;;17.23;100.00;101377.56;4911310;29;20046;-80
2023/09/28 06:59:01;;;;;;;7.22;3.65;;;;;;;17.45;100.00;101379.22;4931930;29;20041;-79
2023/09/28 07:01:27;;;;;;;7.78;4.13;;;;;;;17.70;100.00;101381.44;4928967;29;20191;-81
2023/09/28 07:03:52;;;;;;;8.80;3.90;;;;;;;17.89;100.00;101380.00;4901569;29;20066;-78
2023/09/28 07:06:21;;;;;;;6.75;3.40;;;;;;;18.07;100.00;101390.84;4924122;29;20042;-78
2023/09/28 07:08:47;;;;;;;6.45;3.15;;;;;;;18.26;100.00;101393.81;4926412;29;20514;-79
2023/09/28 07:11:12;;;;;;;6.68;3.38;;;;;;;18.46;97.91;101391.31;4913507;29;20039;-79
2023/09/28 07:13:38;;;;;;;9.35;3.72;;;;;;;18.66;96.94;101399.25;4936083;29;20070;-78
2023/09/28 07:16:03;;;;;;;6.22;3.63;;;;;;;18.96;95.99;101399.81;4930262;29;20036;-79
2023/09/28 07:18:29;;;;;;;8.07;3.42;;;;;;;19.29;94.70;101393.03;4922358;29;20082;-79
2023/09/28 07:20:55;;;;;;;8.35;3.90;;;;;;;19.52;91.41;101401.38;4920363;29;20039;-81
2023/09/28 07:23:21;;;;;;;10.18;4.00;;;;;;;19.67;90.17;101403.00;4919521;29;20039;-78
2023/09/28 07:25:47;;;;;;;11.48;4.53;;;;;;;19.61;90.02;101405.44;4921494;29;20035;-78
2023/09/28 07:28:13;;;;;;;8.18;3.50;;;;;;;19.70;90.29;101419.19;4904287;29;20039;-77
2023/09/28 07:30:39;;;;;;;10.50;3.70;;;;;;;19.10;92.05;101426.13;4921508;29;20095;-78
2023/09/28 07:33:04;;;;;;;8.18;4.25;;;;;;;18.68;94.45;101428.78;4921612;29;20039;-76
2023/09/28 07:35:30;;;;;;;10.73;4.40;;;;;;;18.46;96.55;101423.63;4920435;29;20555;-78
2023/09/28 07:37:55;;;;;;;8.32;4.28;;;;;;;18.69;96.83;101433.03;4901453;29;20047;-77
2023/09/28 07:40:24;;;;;;;9.57;3.55;;;;;;;18.53;97.25;101428.09;4919239;29;20047;-79
2023/09/28 07:42:50;;;;;;;6.35;3.40;;;;;;;18.40;97.78;101434.06;4938061;29;20070;-79
2023/09/28 07:45:18;;;;;;;7.97;3.67;;;;;;;18.26;99.94;101439.22;4915180;29;20055;-79
2023/09/28 07:47:56;;;;;;;13.05;4.18;;;;;;;18.27;100.00;101440.03;4920929;29;20043;-78
2023/09/28 07:50:22;;;;;;;10.55;4.10;;;;;;;18.71;99.49;101441.53;4928272;29;20035;-79
2023/09/28 07:52:47;;;;;;;11.57;4.00;;;;;;;19.34;96.19;101422.16;4903354;29;20418;-79
2023/09/28 07:55:14;;;;;;;12.73;3.80;;;;;;;20.07;92.55;101424.09;4919264;29;20040;-79
2023/09/28 07:57:40;;;;;;;6.57;3.50;;;;;;;20.67;88.32;101418.72;4920847;29;20036;-79
2023/09/28 08:00:07;;;;;;;10.95;3.72;;;;;;;20.87;85.33;101411.56;4902157;29;20067;-78
2023/09/28 08:02:40;;;;;;;9.60;4.07;;;;;;;21.15;83.68;101413.84;4904894;29;20031;-81
2023/09/28 08:05:06;;;;;;;6.47;3.17;;;;;;;21.32;83.00;101429.16;4914225;29;20131;-80
2023/09/28 08:07:33;;;;;;;9.90;4.00;;;;;;;21.12;82.07;101416.91;4916396;29;20620;-80
2023/09/28 08:10:00;;;;;;;7.82;3.60;;;;;;;21.10;81.67;101415.50;4921300;29;20071;-78
2023/09/28 08:12:26;;;;;;;9.90;3.90;;;;;;;21.45;80.61;101425.66;4913787;29;20052;-79
2023/09/28 08:14:52;;;;;;;10.02;3.30;;;;;;;21.75;78.38;101433.78;4923531;29;20058;-78
2023/09/28 08:17:18;;;;;;;8.20;3.85;;;;;;;21.72;78.95;101436.84;4917388;29;21949;-79
2023/09/28 08:19:43;;;;;;;9.13;3.60;;;;;;;21.51;79.24;101451.19;4925581;29;20342;-81
2023/09/28 08:22:10;;;;;;;10.23;3.45;;;;;;;21.87;79.64;101453.19;4919878;29;20099;-81
2023/09/28 08:24:35;;;;;;;9.18;3.30;;;;;;;21.85;76.97;101452.59;4915164;29;20039;-80
2023/09/28 08:27:01;;;;;;;9.77;3.97;;;;;;;22.21;76.48;101442.31;4900781;29;20095;-83
2023/09/28 08:29:26;;;;;;;10.00;3.70;;;;;;;22.68;73.57;101451.41;4908194;29;20082;-80
2023/09/28 08:31:52;;;;;;;13.55;3.60;;;;;;;23.17;71.58;101450.63;4900460;29;20031;-80
2023/09/28 08:34:17;;;;;;;6.65;2.92;;;;;;;23.38;69.90;101452.00;4921077;29;20039;-78
2023/09/28 08:36:44;;;;;;;9.95;3.50;;;;;;;23.40;69.32;101456.00;4901196;29;20035;-80
2023/09/28 08:39:10;;;;;;;9.70;3.22;;;;;;;23.45;69.35;101450.03;4916769;29;20042;-79
2023/09/28 08:41:43;;;;;;;13.93;3.63;;;;;;;23.39;68.22;101453.59;4926712;29;20122;-79
2023/09/28 08:44:10;;;;;;;8.75;3.30;;;;;;;23.60;66.88;101461.03;4921176;29;20564;-80
2023/09/28 08:46:38;;;;;;;11.25;3.30;;;;;;;23.71;67.06;101468.19;4943986;29;20050;-77
2023/09/28 08:49:05;;;;;;;14.23;3.55;;;;;;;23.79;65.30;101472.38;4928303;29;20106;-82
2023/09/28 08:51:31;;;;;;;12.00;3.42;;;;;;;23.37;67.31;101477.63;4941118;29;20102;-80
2023/09/28 08:54:03;;;;;;;8.90;3.17;;;;;;;22.77;69.69;101478.34;4916821;29;20538;-79
2023/09/28 08:56:31;;;;;;;10.70;3.60;;;;;;;22.39;71.73;101483.84;4912382;29;20063;-79
2023/09/28 08:58:59;;;;;;;12.23;3.40;;;;;;;22.59;71.34;101479.16;4922510;29;20050;-80
2023/09/28 09:01:28;;;;;;;6.72;3.22;;;;;;;22.64;71.28;101479.31;4923927;29;20043;-78
2023/09/28 09:03:53;;;;;;;12.45;3.47;;;;;;;22.62;70.71;101477.91;4938538;29;20046;-81
2023/09/28 09:06:20;;;;;;;10.80;2.50;;;;;;;22.73;70.11;101488.56;4928752;29;20051;-78
2023/09/28 09:08:49;;;;;;;10.02;2.97;;;;;;;22.54;70.71;101492.22;4916161;29;20039;-78
2023/09/28 09:11:16;;;;;;;9.35;3.20;;;;;;;22.54;68.61;101492.22;4927063;29;20610;-81
2023/09/28 09:13:48;;;;;;;10.95;3.13;;;;;;;22.17;71.04;101502.69;4924051;29;20058;-81
2023/09/28 09:16:14;;;;;;;9.88;2.85;;;;;;;22.11;70.82;101491.16;4934148;29;20051;-82
2023/09/28 09:18:41;;;;;;;11.15;3.90;;;;;;;22.19;71.87;101494.53;4925122;29;20122;-81
2023/09/28 09:21:07;;;;;;;11.25;3.50;;;;;;;22.17;71.10;101490.28;4927257;29;20071;-80
2023/09/28 09:23:33;;;;;;;6.47;2.83;;;;;;;22.40;71.07;101499.47;4922676;29;20040;-81
2023/09/28 09:25:58;;;;;;;9.82;3.13;;;;;;;22.52;71.02;101500.34;4934775;29;20077;-82
2023/09/28 09:28:29;;;;;;;14.00;3.35;;;;;;;22.35;70.17;101501.94;4918868;29;20094;-79
2023/09/28 09:30:56;;;;;;;12.85;2.97;;;;;;;22.31;71.83;101504.22;4908313;29;20039;-80
2023/09/28 09:33:22;;;;;;;8.50;2.63;;;;;;;22.63;71.52;101508.59;4927914;29;20131;-84
2023/09/28 09:35:49;;;;;;;10.80;2.72;;;;;;;22.62;70.09;101507.81;4912616;29;20044;-81
2023/09/28 09:38:15;;;;;;;11.73;2.42;;;;;;;22.62;69.65;101513.09;4908908;29;20058;-83
2023/09/28 09:40:40;;;;;;;9.88;3.20;;;;;;;22.71;69.99;101506.47;4929630;29;20589;-79
2023/09/28 09:43:07;;;;;;;7.57;2.33;;;;;;;22.71;68.46;101508.31;4921212;29;20443;-80
2023/09/28 09:45:38;;;;;;;8.55;2.55;;;;;;;22.36;69.18;101498.28;4908499;29;20096;-81
2023/09/28 09:48:09;;;;;;;12.00;3.67;;;;;;;22.14;70.62;101498.63;4906151;29;20096;-81
2023/09/28 09:50:36;;;;;;;10.73;3.25;;;;;;;22.26;71.91;101504.03;4924121;28;20050;-81
2023/09/28 09:53:05;;;;;;;9.00;2.70;;;;;;;22.49;70.96;101502.63;4909498;29;20036;-82
2023/09/28 09:55:32;;;;;;;11.27;3.00;;;;;;;22.54;68.18;101500.13;4924789;29;20048;-81
2023/09/28 09:58:03;;;;;;;13.15;3.28;;;;;;;22.16;68.24;101506.34;4909762;29;20035;-81
2023/09/28 10:00:33;;;;;;;10.80;3.80;;;;;;;22.21;67.99;101505.69;4922481;29;20052;-82
2023/09/28 10:03:00;;;;;;;8.23;3.17;;;;;;;22.18;69.28;101504.31;4931861;29;20036;-83
2023/09/28 10:05:27;;;;;;;11.70;2.67;;;;;;;22.28;68.95;101515.22;4935748;28;20039;-82
2023/09/28 10:07:55;;;;;;;9.90;2.88;;;;;;;;;;4921431;29;20406;-84
2023/09/28 10:10:22;;;;;;;13.32;2.75;;;;;;;21.90;69.40;101516.09;4924972;29;20044;-80
2023/09/28 10:12:49;;;;;;;13.50;3.70;;;;;;;21.72;70.22;101527.38;4939071;29;20058;-80
2023/09/28 10:15:16;;;;;;;10.70;2.50;;;;;;;21.51;71.10;101520.59;4937239;29;20042;-80
2023/09/28 10:17:43;;;;;;;14.55;2.85;;;;;;;21.37;71.34;101529.56;4923467;29;20091;-82
2023/09/28 10:20:08;;;;;;;8.60;2.47;;;;;;;21.23;72.82;101526.19;4905883;29;20106;-84
2023/09/28 10:22:34;;;;;;;10.00;3.08;;;;;;;21.11;73.91;101515.47;4937428;29;20570;-80
2023/09/28 10:25:00;;;;;;;13.90;3.22;;;;;;;21.19;73.69;101515.25;4937986;29;20036;-83
2023/09/28 10:27:25;;;;;;;12.02;2.60;;;;;;;21.28;73.76;101502.59;4932442;29;20044;-81
2023/09/28 10:30:21;;;;;;;9.65;3.10;;;;;;;21.17;75.20;101511.19;4922022;29;20043;-81
2023/09/28 10:32:50;;;;;;;14.52;3.35;;;;;;;21.23;75.61;101509.53;4925429;29;20044;-79
2023/09/28 10:35:29;;;;;;;10.70;3.75;;;;;;;21.20;76.01;101519.47;4921079;29;20058;-81
2023/09/28 10:38:17;;;;;;;13.13;3.00;;;;;;;21.35;75.58;101524.50;4936494;29;20039;-84
2023/09/28 10:40:44;;;;;;;10.13;2.65;;;;;;;21.35;75.78;101515.78;4936769;29;20036;-82
2023/09/28 10:43:10;;;;;;;8.68;2.90;;;;;;;21.38;75.72;101518.81;4921324;29;20059;-82
2023/09/28 10:45:37;;;;;;;13.35;3.33;;;;;;;21.48;74.15;101510.47;4927559;29;20039;-82
2023/09/28 10:48:09;;;;;;;11.55;3.28;;;;;;;21.40;76.21;101515.97;4921039;29;20040;-84
2023/09/28 10:50:38;;;;;;;11.25;2.90;;;;;;;21.34;75.94;101514.16;4939278;29;20043;-83
2023/09/28 10:53:04;;;;;;;18.33;3.42;;;;;;;21.34;76.79;101501.78;4925459;29;20103;-84
2023/09/28 10:55:29;;;;;;;12.50;3.72;;;;;;;21.40;75.45;101508.06;4940242;29;20039;-85
2023/09/28 10:58:02;;;;;;;11.13;2.72;;;;;;;21.23;76.24;101498.97;4933514;29;20040;-83
2023/09/28 11:00:30;;;;;;;5.13;2.40;;;;;;;21.37;74.45;101496.06;4905742;29;20044;-83
2023/09/28 11:02:57;;;;;;;13.18;3.00;;;;;;;21.40;75.01;101492.22;4935564;29;20513;-81
2023/09/28 11:05:23;;;;;;;9.23;2.42;;;;;;;21.37;73.75;101482.09;4922448;29;20047;-84
2023/09/28 11:07:48;;;;;;;14.93;4.43;;;;;;;21.45;74.14;101489.78;4906404;29;20043;-83
2023/09/28 11:10:14;;;;;;;12.38;3.40;;;;;;;21.48;73.16;101488.56;4918708;29;20075;-82
2023/09/28 11:12:41;;;;;;;13.35;3.15;;;;;;;21.66;72.75;101485.19;4926632;29;20043;-80
2023/09/28 11:15:09;;;;;;;9.90;2.97;;;;;;;21.65;72.61;101492.31;4938980;28;20058;-84
2023/09/28 11:17:35;;;;;;;11.20;3.20;;;;;;;21.71;72.42;101496.72;4906047;29;20042;-82